createdAt,value
2024-04-14T00:00:05.320Z,14.99
2024-04-14T00:00:15.284Z,14.99
2024-04-14T00:00:25.376Z,14.99
2024-04-14T00:00:35.321Z,14.99
2024-04-14T00:00:45.310Z,14.99
2024-04-14T00:01:05.452Z,14.97
2024-04-14T00:01:15.301Z,14.97
2024-04-14T00:01:25.327Z,14.97
2024-04-14T00:01:35.309Z,14.97
2024-04-14T00:01:45.313Z,14.97
2024-04-14T00:01:55.304Z,14.96
2024-04-14T00:02:05.302Z,14.96
2024-04-14T00:02:15.338Z,14.97
2024-04-14T00:02:25.293Z,14.99
2024-04-14T00:02:45.305Z,14.97
2024-04-14T00:02:55.301Z,14.99
2024-04-14T00:03:05.301Z,14.99
2024-04-14T00:03:15.311Z,14.97
2024-04-14T00:03:25.378Z,14.97
2024-04-14T00:03:35.339Z,14.99
2024-04-14T00:03:45.396Z,14.97
2024-04-14T00:03:55.345Z,14.97
2024-04-14T00:04:05.475Z,14.97
2024-04-14T00:04:25.431Z,14.99
2024-04-14T00:04:35.557Z,14.99
2024-04-14T00:04:45.423Z,14.97
2024-04-14T00:04:55.419Z,14.97
2024-04-14T00:05:05.403Z,14.99
2024-04-14T00:05:15.351Z,14.99
2024-04-14T00:05:25.414Z,14.97
2024-04-14T00:05:35.343Z,14.97
2024-04-14T00:05:45.305Z,14.96
2024-04-14T00:05:55.318Z,14.96
2024-04-14T00:06:05.317Z,14.96
2024-04-14T00:06:15.309Z,14.97
2024-04-14T00:06:35.358Z,14.96
2024-04-14T00:06:45.358Z,14.95
2024-04-14T00:06:55.374Z,14.96
2024-04-14T00:07:05.330Z,14.96
2024-04-14T00:07:15.410Z,14.93
2024-04-14T00:07:25.320Z,14.95
2024-04-14T00:07:35.328Z,14.96
2024-04-14T00:07:45.318Z,14.95
2024-04-14T00:07:55.321Z,14.95
2024-04-14T00:08:05.316Z,14.96
2024-04-14T00:08:15.317Z,14.95
2024-04-14T00:08:25.320Z,14.95
2024-04-14T00:08:45.324Z,14.97
2024-04-14T00:08:55.319Z,14.97
2024-04-14T00:09:05.326Z,14.97
2024-04-14T00:09:15.318Z,14.99
2024-04-14T00:09:25.349Z,14.99
2024-04-14T00:09:35.351Z,14.99
2024-04-14T00:09:45.357Z,15.00
2024-04-14T00:10:05.407Z,14.99
2024-04-14T00:10:15.386Z,14.99
2024-04-14T00:10:25.337Z,14.97
2024-04-14T00:10:35.415Z,14.97
2024-04-14T00:10:45.325Z,14.95
2024-04-14T00:10:55.370Z,14.96
2024-04-14T00:11:05.358Z,14.96
2024-04-14T00:11:15.351Z,14.95
2024-04-14T00:11:25.388Z,14.95
2024-04-14T00:11:45.329Z,14.95
2024-04-14T00:11:55.326Z,14.91
2024-04-14T00:12:05.343Z,14.91
2024-04-14T00:12:15.348Z,14.91
2024-04-14T00:12:25.383Z,14.89
2024-04-14T00:12:35.351Z,14.91
2024-04-14T00:12:45.354Z,14.91
2024-04-14T00:12:55.946Z,14.91
2024-04-14T00:13:05.415Z,14.91
2024-04-14T00:13:15.375Z,14.91
2024-04-14T00:13:25.356Z,14.89
2024-04-14T00:13:35.356Z,14.89
2024-04-14T00:13:45.339Z,14.89
2024-04-14T00:14:05.350Z,14.88
2024-04-14T00:14:15.346Z,14.87
2024-04-14T00:14:25.346Z,14.85
2024-04-14T00:14:35.364Z,14.85
2024-04-14T00:14:45.342Z,14.84
2024-04-14T00:14:55.337Z,14.84
2024-04-14T00:15:05.349Z,14.85
2024-04-14T00:15:15.350Z,14.85
2024-04-14T00:15:25.358Z,14.85
2024-04-14T00:15:35.358Z,14.84
2024-04-14T00:15:45.380Z,14.84
2024-04-14T00:15:55.388Z,14.82
2024-04-14T00:16:05.378Z,14.82
2024-04-14T00:16:15.355Z,14.82
2024-04-14T00:16:25.349Z,14.82
2024-04-14T00:16:45.371Z,14.82
2024-04-14T00:16:55.352Z,14.81
2024-04-14T00:17:05.359Z,14.81
2024-04-14T00:17:15.360Z,14.82
2024-04-14T00:17:25.354Z,14.82
2024-04-14T00:17:35.417Z,14.81
2024-04-14T00:17:45.569Z,14.81
2024-04-14T00:17:55.407Z,14.82
2024-04-14T00:18:05.407Z,14.82
2024-04-14T00:18:15.456Z,14.81
2024-04-14T00:18:25.471Z,14.82
2024-04-14T00:18:35.469Z,14.81
2024-04-14T00:18:55.442Z,14.81
2024-04-14T00:19:05.445Z,14.81
2024-04-14T00:19:15.412Z,14.82
2024-04-14T00:19:25.399Z,14.79
2024-04-14T00:19:35.380Z,14.81
2024-04-14T00:19:45.367Z,14.79
2024-04-14T00:19:55.468Z,14.78
2024-04-14T00:20:05.366Z,14.77
2024-04-14T00:20:15.369Z,14.79
2024-04-14T00:20:25.374Z,14.77
2024-04-14T00:20:35.374Z,14.77
2024-04-14T00:20:45.372Z,14.77
2024-04-14T00:20:55.386Z,14.74
2024-04-14T00:21:05.379Z,14.74
2024-04-14T00:21:15.391Z,14.73
2024-04-14T00:21:25.404Z,14.74
2024-04-14T00:21:45.391Z,14.73
2024-04-14T00:21:55.405Z,14.74
2024-04-14T00:22:05.384Z,14.78
2024-04-14T00:22:15.385Z,14.77
2024-04-14T00:22:25.379Z,14.78
2024-04-14T00:22:35.376Z,14.78
2024-04-14T00:22:45.408Z,14.77
2024-04-14T00:22:55.391Z,14.74
2024-04-14T00:23:05.389Z,14.74
2024-04-14T00:23:15.400Z,14.77
2024-04-14T00:23:25.377Z,14.77
2024-04-14T00:23:35.382Z,14.74
2024-04-14T00:23:45.380Z,14.74
2024-04-14T00:23:55.405Z,14.77
2024-04-14T00:24:05.385Z,14.78
2024-04-14T00:24:15.392Z,14.79
2024-04-14T00:24:25.396Z,14.78
2024-04-14T00:24:35.403Z,14.79
2024-04-14T00:24:45.413Z,14.78
2024-04-14T00:24:55.445Z,14.78
2024-04-14T00:25:05.426Z,14.79
2024-04-14T00:25:15.414Z,14.79
2024-04-14T00:25:25.392Z,14.78
2024-04-14T00:25:35.394Z,14.78
2024-04-14T00:25:45.950Z,14.79
2024-04-14T00:26:05.395Z,14.82
2024-04-14T00:26:15.426Z,14.81
2024-04-14T00:26:25.397Z,14.84
2024-04-14T00:26:35.396Z,14.84
2024-04-14T00:26:45.396Z,14.82
2024-04-14T00:26:55.399Z,14.84
2024-04-14T00:27:05.398Z,14.82
2024-04-14T00:27:15.411Z,14.85
2024-04-14T00:27:25.442Z,14.84
2024-04-14T00:27:35.409Z,14.84
2024-04-14T00:27:45.414Z,14.85
2024-04-14T00:27:55.461Z,14.85
2024-04-14T00:28:05.491Z,14.82
2024-04-14T00:28:15.409Z,14.82
2024-04-14T00:28:25.404Z,14.81
2024-04-14T00:28:35.403Z,14.81
2024-04-14T00:28:45.457Z,14.81
2024-04-14T00:28:55.407Z,14.81
2024-04-14T00:29:05.411Z,14.81
2024-04-14T00:29:15.406Z,14.79
2024-04-14T00:29:25.411Z,14.82
2024-04-14T00:29:35.406Z,14.81
2024-04-14T00:29:45.411Z,14.78
2024-04-14T00:29:55.410Z,14.79
2024-04-14T00:30:05.409Z,14.78
2024-04-14T00:30:25.450Z,14.79
2024-04-14T00:30:35.424Z,14.78
2024-04-14T00:30:45.507Z,14.78
2024-04-14T00:30:55.508Z,14.78
2024-04-14T00:31:05.478Z,14.78
2024-04-14T00:31:15.423Z,14.77
2024-04-14T00:31:25.424Z,14.78
2024-04-14T00:31:35.432Z,14.77
2024-04-14T00:31:45.417Z,14.78
2024-04-14T00:31:55.421Z,14.77
2024-04-14T00:32:05.419Z,14.77
2024-04-14T00:32:15.455Z,14.77
2024-04-14T00:32:25.455Z,14.77
2024-04-14T00:32:45.492Z,14.74
2024-04-14T00:32:55.494Z,14.74
2024-04-14T00:33:05.540Z,14.74
2024-04-14T00:33:15.581Z,14.73
2024-04-14T00:33:25.483Z,14.70
2024-04-14T00:33:35.482Z,14.73
2024-04-14T00:33:45.495Z,14.73
2024-04-14T00:33:55.466Z,14.73
2024-04-14T00:34:05.469Z,14.74
2024-04-14T00:34:15.496Z,14.74
2024-04-14T00:34:25.930Z,14.74
2024-04-14T00:34:35.502Z,14.74
2024-04-14T00:34:45.447Z,14.74
2024-04-14T00:34:55.431Z,14.73
2024-04-14T00:35:15.432Z,14.73
2024-04-14T00:35:25.426Z,14.70
2024-04-14T00:35:35.451Z,14.70
2024-04-14T00:35:45.448Z,14.69
2024-04-14T00:35:55.448Z,14.70
2024-04-14T00:36:05.434Z,14.69
2024-04-14T00:36:15.439Z,14.69
2024-04-14T00:36:25.463Z,14.70
2024-04-14T00:36:45.454Z,14.70
2024-04-14T00:36:55.545Z,14.70
2024-04-14T00:37:05.489Z,14.70
2024-04-14T00:37:15.445Z,14.73
2024-04-14T00:37:25.466Z,14.70
2024-04-14T00:37:35.440Z,14.73
2024-04-14T00:37:45.442Z,14.74
2024-04-14T00:37:55.449Z,14.73
2024-04-14T00:38:05.452Z,14.74
2024-04-14T00:38:15.452Z,14.74
2024-04-14T00:38:25.446Z,14.74
2024-04-14T00:38:35.446Z,14.74
2024-04-14T00:38:45.452Z,14.74
2024-04-14T00:38:55.471Z,14.77
2024-04-14T00:39:05.459Z,14.73
2024-04-14T00:39:15.471Z,14.73
2024-04-14T00:39:25.492Z,14.73
2024-04-14T00:39:35.480Z,14.70
2024-04-14T00:39:45.472Z,14.70
2024-04-14T00:39:55.484Z,14.70
2024-04-14T00:40:05.456Z,14.70
2024-04-14T00:40:15.453Z,14.69
2024-04-14T00:40:25.475Z,14.69
2024-04-14T00:40:35.462Z,14.68
2024-04-14T00:40:45.451Z,14.68
2024-04-14T00:41:05.451Z,14.66
2024-04-14T00:41:15.468Z,14.66
2024-04-14T00:41:25.457Z,14.66
2024-04-14T00:41:35.464Z,14.65
2024-04-14T00:41:45.464Z,14.65
2024-04-14T00:41:55.454Z,14.65
2024-04-14T00:42:05.463Z,14.63
2024-04-14T00:42:15.467Z,14.63
2024-04-14T00:42:25.485Z,14.63
2024-04-14T00:42:45.520Z,14.63
2024-04-14T00:42:55.554Z,14.62
2024-04-14T00:43:05.467Z,14.63
2024-04-14T00:43:15.493Z,14.63
2024-04-14T00:43:25.470Z,14.62
2024-04-14T00:43:35.486Z,14.62
2024-04-14T00:43:45.479Z,14.63
2024-04-14T00:43:55.464Z,14.62
2024-04-14T00:44:05.466Z,14.63
2024-04-14T00:44:15.494Z,14.62
2024-04-14T00:44:25.467Z,14.62
2024-04-14T00:44:45.475Z,14.61
2024-04-14T00:44:55.480Z,14.62
2024-04-14T00:45:05.487Z,14.62
2024-04-14T00:45:15.480Z,14.61
2024-04-14T00:45:25.514Z,14.62
2024-04-14T00:45:35.521Z,14.62
2024-04-14T00:45:45.504Z,14.62
2024-04-14T00:45:55.639Z,14.61
2024-04-14T00:46:05.484Z,14.61
2024-04-14T00:46:15.500Z,14.61
2024-04-14T00:46:25.537Z,14.59
2024-04-14T00:46:45.483Z,14.59
2024-04-14T00:46:55.478Z,14.58
2024-04-14T00:47:05.501Z,14.55
2024-04-14T00:47:15.518Z,14.56
2024-04-14T00:47:25.505Z,14.58
2024-04-14T00:47:35.544Z,14.56
2024-04-14T00:47:45.607Z,14.56
2024-04-14T00:47:55.572Z,14.53
2024-04-14T00:48:05.606Z,14.56
2024-04-14T00:48:25.579Z,14.56
2024-04-14T00:48:35.631Z,14.55
2024-04-14T00:48:45.569Z,14.56
2024-04-14T00:48:55.588Z,14.56
2024-04-14T00:49:05.634Z,14.55
2024-04-14T00:49:15.541Z,14.56
2024-04-14T00:49:25.767Z,14.55
2024-04-14T00:49:35.558Z,14.56
2024-04-14T00:49:45.501Z,14.56
2024-04-14T00:49:55.492Z,14.53
2024-04-14T00:50:05.500Z,14.55
2024-04-14T00:50:25.490Z,14.55
2024-04-14T00:50:35.507Z,14.55
2024-04-14T00:50:45.502Z,14.56
2024-04-14T00:50:55.495Z,14.55
2024-04-14T00:51:05.519Z,14.56
2024-04-14T00:51:15.499Z,14.56
2024-04-14T00:51:25.519Z,14.53
2024-04-14T00:51:45.535Z,14.55
2024-04-14T00:51:55.530Z,14.53
2024-04-14T00:52:05.517Z,14.53
2024-04-14T00:52:15.505Z,14.53
2024-04-14T00:52:25.501Z,14.53
2024-04-14T00:52:35.509Z,14.50
2024-04-14T00:52:45.518Z,14.50
2024-04-14T00:52:55.527Z,14.50
2024-04-14T00:53:05.507Z,14.50
2024-04-14T00:53:15.515Z,14.50
2024-04-14T00:53:25.505Z,14.50
2024-04-14T00:53:45.511Z,14.48
2024-04-14T00:53:55.506Z,14.48
2024-04-14T00:54:05.513Z,14.48
2024-04-14T00:54:15.519Z,14.47
2024-04-14T00:54:25.530Z,14.47
2024-04-14T00:54:35.527Z,14.47
2024-04-14T00:54:45.539Z,14.47
2024-04-14T00:54:55.558Z,14.47
2024-04-14T00:55:05.647Z,14.45
2024-04-14T00:55:15.524Z,14.45
2024-04-14T00:55:25.514Z,14.45
2024-04-14T00:55:35.546Z,14.45
2024-04-14T00:55:45.514Z,14.44
2024-04-14T00:55:55.534Z,14.44
2024-04-14T00:56:05.517Z,14.44
2024-04-14T00:56:25.520Z,14.43
2024-04-14T00:56:35.525Z,14.44
2024-04-14T00:56:45.518Z,14.41
2024-04-14T00:56:55.522Z,14.41
2024-04-14T00:57:05.522Z,14.41
2024-04-14T00:57:15.530Z,14.41
2024-04-14T00:57:25.536Z,14.38
2024-04-14T00:57:35.548Z,14.38
2024-04-14T00:57:45.535Z,14.38
2024-04-14T00:57:55.622Z,14.38
2024-04-14T00:58:05.587Z,14.38
2024-04-14T00:58:15.531Z,14.40
2024-04-14T00:58:25.546Z,14.40
2024-04-14T00:58:35.524Z,14.41
2024-04-14T00:58:45.532Z,14.40
2024-04-14T00:58:55.531Z,14.41
2024-04-14T00:59:05.535Z,14.38
2024-04-14T00:59:15.544Z,14.40
2024-04-14T00:59:25.540Z,14.40
2024-04-14T00:59:35.530Z,14.38
2024-04-14T00:59:45.531Z,14.37
2024-04-14T00:59:55.538Z,14.37
2024-04-14T01:00:05.540Z,14.37
2024-04-14T01:00:15.533Z,14.37
2024-04-14T01:00:25.587Z,14.37
2024-04-14T01:00:35.672Z,14.37
2024-04-14T01:00:45.603Z,14.37
2024-04-14T01:00:55.662Z,14.38
2024-04-14T01:01:15.613Z,14.38
2024-04-14T01:01:25.597Z,14.38
2024-04-14T01:01:35.643Z,14.37
2024-04-14T01:01:45.592Z,14.38
2024-04-14T01:01:55.553Z,14.38
2024-04-14T01:02:07.481Z,14.38
2024-04-14T01:02:25.543Z,14.38
2024-04-14T01:02:35.566Z,14.38
2024-04-14T01:02:45.548Z,14.38
2024-04-14T01:02:55.601Z,14.37
2024-04-14T01:03:05.575Z,14.38
2024-04-14T01:03:15.576Z,14.38
2024-04-14T01:03:25.618Z,14.38
2024-04-14T01:03:35.667Z,14.38
2024-04-14T01:03:45.632Z,14.38
2024-04-14T01:03:55.646Z,14.40
2024-04-14T01:04:05.654Z,14.40
2024-04-14T01:04:15.663Z,14.40
2024-04-14T01:04:25.612Z,14.40
2024-04-14T01:04:35.594Z,14.40
2024-04-14T01:04:45.656Z,14.38
2024-04-14T01:04:55.682Z,14.40
2024-04-14T01:05:05.630Z,14.40
2024-04-14T01:05:15.550Z,14.41
2024-04-14T01:05:25.551Z,14.40
2024-04-14T01:05:36.463Z,14.41
2024-04-14T01:05:45.581Z,14.41
2024-04-14T01:05:55.554Z,14.40
2024-04-14T01:06:05.589Z,14.40
2024-04-14T01:06:15.616Z,14.38
2024-04-14T01:06:25.620Z,14.40
2024-04-14T01:06:45.591Z,14.40
2024-04-14T01:06:55.711Z,14.41
2024-04-14T01:07:05.613Z,14.40
2024-04-14T01:07:15.569Z,14.40
2024-04-14T01:07:25.559Z,14.43
2024-04-14T01:07:35.603Z,14.41
2024-04-14T01:07:45.565Z,14.44
2024-04-14T01:07:55.561Z,14.43
2024-04-14T01:08:05.579Z,14.43
2024-04-14T01:08:15.601Z,14.43
2024-04-14T01:08:35.584Z,14.41
2024-04-14T01:08:45.564Z,14.43
2024-04-14T01:08:55.574Z,14.41
2024-04-14T01:09:05.582Z,14.41
2024-04-14T01:09:15.583Z,14.41
2024-04-14T01:09:25.576Z,14.40
2024-04-14T01:09:35.625Z,14.40
2024-04-14T01:09:45.612Z,14.40
2024-04-14T01:09:55.664Z,14.41
2024-04-14T01:10:15.643Z,14.38
2024-04-14T01:10:25.574Z,14.40
2024-04-14T01:10:35.576Z,14.40
2024-04-14T01:10:45.616Z,14.38
2024-04-14T01:10:55.592Z,14.40
2024-04-14T01:11:05.606Z,14.40
2024-04-14T01:11:15.589Z,14.40
2024-04-14T01:11:25.573Z,14.38
2024-04-14T01:11:35.576Z,14.37
2024-04-14T01:11:45.571Z,14.38
2024-04-14T01:11:55.572Z,14.38
2024-04-14T01:12:05.584Z,14.38
2024-04-14T01:12:15.607Z,14.38
2024-04-14T01:12:25.628Z,14.40
2024-04-14T01:12:35.607Z,14.40
2024-04-14T01:12:45.596Z,14.37
2024-04-14T01:12:55.621Z,14.38
2024-04-14T01:13:05.616Z,14.38
2024-04-14T01:13:15.666Z,14.38
2024-04-14T01:13:35.582Z,14.37
2024-04-14T01:13:45.586Z,14.37
2024-04-14T01:13:55.596Z,14.38
2024-04-14T01:14:05.606Z,14.37
2024-04-14T01:14:15.594Z,14.38
2024-04-14T01:14:25.597Z,14.36
2024-04-14T01:14:35.592Z,14.36
2024-04-14T01:14:45.590Z,14.37
2024-04-14T01:14:55.591Z,14.33
2024-04-14T01:15:16.450Z,14.32
2024-04-14T01:15:25.615Z,14.33
2024-04-14T01:15:35.595Z,14.32
2024-04-14T01:15:45.624Z,14.30
2024-04-14T01:15:55.706Z,14.29
2024-04-14T01:16:05.735Z,14.30
2024-04-14T01:16:25.603Z,14.29
2024-04-14T01:16:35.597Z,14.29
2024-04-14T01:16:45.604Z,14.26
2024-04-14T01:16:55.600Z,14.26
2024-04-14T01:17:05.690Z,14.26
2024-04-14T01:17:15.679Z,14.26
2024-04-14T01:17:25.682Z,14.26
2024-04-14T01:17:35.647Z,14.25
2024-04-14T01:17:45.730Z,14.22
2024-04-14T01:17:55.657Z,14.23
2024-04-14T01:18:05.748Z,14.22
2024-04-14T01:18:15.630Z,14.20
2024-04-14T01:18:35.677Z,14.18
2024-04-14T01:18:45.704Z,14.19
2024-04-14T01:18:55.664Z,14.19
2024-04-14T01:19:05.705Z,14.14
2024-04-14T01:19:15.627Z,14.15
2024-04-14T01:19:25.602Z,14.14
2024-04-14T01:19:35.642Z,14.14
2024-04-14T01:19:45.623Z,14.14
2024-04-14T01:19:55.617Z,14.15
2024-04-14T01:20:05.609Z,14.14
2024-04-14T01:20:15.636Z,14.13
2024-04-14T01:20:25.606Z,14.14
2024-04-14T01:20:35.670Z,14.13
2024-04-14T01:20:45.638Z,14.10
2024-04-14T01:20:55.617Z,14.11
2024-04-14T01:21:15.612Z,14.13
2024-04-14T01:21:25.621Z,14.10
2024-04-14T01:21:35.630Z,14.10
2024-04-14T01:21:45.635Z,14.10
2024-04-14T01:21:55.730Z,14.10
2024-04-14T01:22:05.609Z,14.11
2024-04-14T01:22:25.633Z,14.11
2024-04-14T01:22:35.626Z,14.13
2024-04-14T01:22:45.629Z,14.11
2024-04-14T01:22:55.619Z,14.13
2024-04-14T01:23:05.677Z,14.11
2024-04-14T01:23:15.618Z,14.11
2024-04-14T01:23:25.618Z,14.13
2024-04-14T01:23:35.634Z,14.11
2024-04-14T01:23:45.629Z,14.11
2024-04-14T01:23:55.640Z,14.11
2024-04-14T01:24:05.620Z,14.11
2024-04-14T01:24:15.619Z,14.08
2024-04-14T01:24:25.658Z,14.13
2024-04-14T01:24:35.659Z,14.11
2024-04-14T01:24:45.636Z,14.10
2024-04-14T01:24:56.922Z,14.10
2024-04-14T01:25:05.702Z,14.10
2024-04-14T01:25:15.622Z,14.10
2024-04-14T01:25:25.627Z,14.10
2024-04-14T01:25:35.634Z,14.08
2024-04-14T01:25:45.630Z,14.10
2024-04-14T01:25:55.664Z,14.08
2024-04-14T01:26:05.674Z,14.08
2024-04-14T01:26:15.627Z,14.08
2024-04-14T01:26:25.630Z,14.10
2024-04-14T01:26:35.659Z,14.10
2024-04-14T01:26:45.640Z,14.08
2024-04-14T01:26:55.634Z,14.11
2024-04-14T01:27:05.660Z,14.08
2024-04-14T01:27:16.360Z,14.11
2024-04-14T01:27:25.672Z,14.10
2024-04-14T01:27:35.704Z,14.11
2024-04-14T01:27:45.683Z,14.11
2024-04-14T01:27:55.776Z,14.13
2024-04-14T01:28:15.639Z,14.11
2024-04-14T01:28:25.644Z,14.10
2024-04-14T01:28:35.668Z,14.10
2024-04-14T01:28:45.636Z,14.10
2024-04-14T01:28:55.652Z,14.10
2024-04-14T01:29:05.643Z,14.08
2024-04-14T01:29:15.674Z,14.08
2024-04-14T01:29:25.647Z,14.08
2024-04-14T01:29:35.653Z,14.07
2024-04-14T01:29:45.643Z,14.05
2024-04-14T01:29:55.645Z,14.05
2024-04-14T01:30:05.644Z,14.05
2024-04-14T01:30:15.655Z,14.04
2024-04-14T01:30:25.682Z,14.05
2024-04-14T01:30:45.662Z,14.05
2024-04-14T01:30:55.695Z,14.05
2024-04-14T01:31:05.711Z,14.01
2024-04-14T01:31:15.642Z,14.03
2024-04-14T01:31:25.654Z,14.03
2024-04-14T01:31:35.673Z,14.03
2024-04-14T01:31:45.662Z,14.03
2024-04-14T01:31:55.661Z,14.04
2024-04-14T01:32:05.685Z,14.04
2024-04-14T01:32:15.669Z,14.03
2024-04-14T01:32:25.697Z,14.01
2024-04-14T01:32:35.828Z,14.01
2024-04-14T01:32:45.681Z,14.00
2024-04-14T01:32:55.674Z,14.00
2024-04-14T01:33:05.693Z,14.00
2024-04-14T01:33:15.654Z,13.96
2024-04-14T01:33:25.687Z,13.96
2024-04-14T01:33:35.683Z,13.96
2024-04-14T01:33:45.671Z,13.93
2024-04-14T01:33:55.728Z,13.93
2024-04-14T01:34:05.668Z,13.95
2024-04-14T01:34:15.663Z,13.92
2024-04-14T01:34:25.692Z,13.92
2024-04-14T01:34:35.659Z,13.93
2024-04-14T01:34:45.663Z,13.92
2024-04-14T01:34:55.658Z,13.90
2024-04-14T01:35:05.659Z,13.89
2024-04-14T01:35:15.671Z,13.89
2024-04-14T01:35:25.684Z,13.88
2024-04-14T01:35:35.665Z,13.89
2024-04-14T01:35:45.687Z,13.88
2024-04-14T01:35:55.671Z,13.89
2024-04-14T01:36:05.662Z,13.89
2024-04-14T01:36:15.664Z,13.89
2024-04-14T01:36:25.709Z,13.89
2024-04-14T01:36:45.752Z,13.89
2024-04-14T01:36:55.797Z,13.86
2024-04-14T01:37:05.666Z,13.88
2024-04-14T01:37:15.670Z,13.88
2024-04-14T01:37:25.683Z,13.88
2024-04-14T01:37:35.677Z,13.88
2024-04-14T01:37:45.690Z,13.86
2024-04-14T01:38:05.189Z,13.89
2024-04-14T01:38:15.912Z,13.89
2024-04-14T01:38:22.339Z,13.89
2024-04-14T01:38:26.982Z,13.90
2024-04-14T01:38:35.693Z,13.89
2024-04-14T01:38:45.674Z,13.90
2024-04-14T01:39:05.676Z,13.90
2024-04-14T01:39:15.692Z,13.89
2024-04-14T01:39:25.719Z,13.90
2024-04-14T01:39:35.727Z,13.90
2024-04-14T01:39:45.785Z,13.90
2024-04-14T01:39:55.798Z,13.90
2024-04-14T01:40:05.728Z,13.90
2024-04-14T01:40:15.684Z,13.90
2024-04-14T01:40:25.685Z,13.89
2024-04-14T01:40:35.684Z,13.89
2024-04-14T01:40:45.713Z,13.89
2024-04-14T01:41:05.691Z,13.89
2024-04-14T01:41:15.691Z,13.88
2024-04-14T01:41:25.692Z,13.86
2024-04-14T01:41:35.693Z,13.88
2024-04-14T01:41:45.690Z,13.86
2024-04-14T01:41:55.684Z,13.85
2024-04-14T01:42:05.700Z,13.86
2024-04-14T01:42:15.689Z,13.86
2024-04-14T01:42:35.700Z,13.86
2024-04-14T01:42:45.728Z,13.86
2024-04-14T01:42:55.751Z,13.86
2024-04-14T01:43:05.697Z,13.86
2024-04-14T01:43:15.694Z,13.86
2024-04-14T01:43:25.693Z,13.85
2024-04-14T01:43:35.712Z,13.83
2024-04-14T01:43:45.710Z,13.83
2024-04-14T01:43:55.694Z,13.83
2024-04-14T01:44:05.697Z,13.82
2024-04-14T01:44:15.696Z,13.82
2024-04-14T01:44:25.704Z,13.82
2024-04-14T01:44:45.699Z,13.82
2024-04-14T01:44:55.707Z,13.82
2024-04-14T01:45:05.704Z,13.80
2024-04-14T01:45:15.701Z,13.82
2024-04-14T01:45:25.750Z,13.78
2024-04-14T01:45:35.726Z,13.80
2024-04-14T01:45:45.756Z,13.82
2024-04-14T01:45:55.816Z,13.82
2024-04-14T01:46:05.747Z,13.80
2024-04-14T01:46:15.811Z,13.78
2024-04-14T01:46:25.817Z,13.80
2024-04-14T01:46:35.712Z,13.80
2024-04-14T01:46:55.722Z,13.80
2024-04-14T01:47:05.707Z,13.80
2024-04-14T01:47:15.709Z,13.78
2024-04-14T01:47:25.749Z,13.77
2024-04-14T01:47:35.786Z,13.77
2024-04-14T01:47:45.803Z,13.75
2024-04-14T01:48:05.786Z,13.77
2024-04-14T01:48:15.846Z,13.75
2024-04-14T01:48:25.830Z,13.75
2024-04-14T01:48:35.820Z,13.80
2024-04-14T01:48:45.877Z,13.80
2024-04-14T01:48:55.807Z,13.80
2024-04-14T01:49:05.783Z,13.78
2024-04-14T01:49:15.744Z,13.82
2024-04-14T01:49:25.777Z,13.80
2024-04-14T01:49:35.719Z,13.80
2024-04-14T01:49:45.726Z,13.80
2024-04-14T01:49:55.735Z,13.80
2024-04-14T01:50:05.726Z,13.82
2024-04-14T01:50:15.728Z,13.78
2024-04-14T01:50:25.722Z,13.80
2024-04-14T01:50:35.726Z,13.78
2024-04-14T01:50:45.757Z,13.78
2024-04-14T01:50:55.724Z,13.77
2024-04-14T01:51:05.727Z,13.78
2024-04-14T01:51:15.728Z,13.78
2024-04-14T01:51:25.772Z,13.77
2024-04-14T01:51:35.755Z,13.78
2024-04-14T01:51:55.767Z,13.78
2024-04-14T01:52:05.782Z,13.78
2024-04-14T01:52:15.735Z,13.77
2024-04-14T01:52:25.965Z,13.77
2024-04-14T01:52:35.740Z,13.77
2024-04-14T01:52:45.737Z,13.77
2024-04-14T01:52:55.744Z,13.77
2024-04-14T01:53:05.742Z,13.75
2024-04-14T01:53:15.747Z,13.75
2024-04-14T01:53:25.748Z,13.77
2024-04-14T01:53:35.738Z,13.75
2024-04-14T01:53:45.756Z,13.75
2024-04-14T01:53:55.741Z,13.78
2024-04-14T01:54:05.737Z,13.77
2024-04-14T01:54:25.761Z,13.77
2024-04-14T01:54:35.758Z,13.78
2024-04-14T01:54:45.822Z,13.80
2024-04-14T01:54:55.804Z,13.78
2024-04-14T01:55:05.761Z,13.77
2024-04-14T01:55:15.762Z,13.77
2024-04-14T01:55:25.748Z,13.78
2024-04-14T01:55:35.758Z,13.80
2024-04-14T01:55:45.767Z,13.80
2024-04-14T01:55:55.758Z,13.82
2024-04-14T01:56:06.452Z,13.83
2024-04-14T01:56:15.753Z,13.85
2024-04-14T01:56:25.753Z,13.86
2024-04-14T01:56:35.756Z,13.86
2024-04-14T01:56:55.750Z,13.86
2024-04-14T01:57:05.787Z,13.86
2024-04-14T01:57:15.780Z,13.86
2024-04-14T01:57:25.770Z,13.88
2024-04-14T01:57:35.808Z,13.85
2024-04-14T01:57:45.795Z,13.85
2024-04-14T01:57:55.801Z,13.86
2024-04-14T01:58:05.764Z,13.88
2024-04-14T01:58:15.762Z,13.88
2024-04-14T01:58:25.762Z,13.88
2024-04-14T01:58:35.761Z,13.89
2024-04-14T01:58:45.762Z,13.89
2024-04-14T01:58:55.783Z,13.89
2024-04-14T01:59:05.771Z,13.89
2024-04-14T01:59:15.763Z,13.88
2024-04-14T01:59:35.769Z,13.86
2024-04-14T01:59:45.769Z,13.88
2024-04-14T01:59:55.764Z,13.88
2024-04-14T02:00:05.783Z,13.86
2024-04-14T02:00:15.965Z,13.86
2024-04-14T02:00:25.806Z,13.86
2024-04-14T02:00:35.841Z,13.86
2024-04-14T02:00:45.988Z,13.85
2024-04-14T02:00:55.857Z,13.85
2024-04-14T02:01:05.875Z,13.85
2024-04-14T02:01:15.820Z,13.83
2024-04-14T02:01:25.863Z,13.82
2024-04-14T02:01:35.827Z,13.82
2024-04-14T02:01:55.776Z,13.80
2024-04-14T02:02:05.795Z,13.80
2024-04-14T02:02:15.773Z,13.82
2024-04-14T02:02:25.780Z,13.80
2024-04-14T02:02:35.798Z,13.78
2024-04-14T02:02:45.846Z,13.80
2024-04-14T02:02:55.825Z,13.78
2024-04-14T02:03:05.820Z,13.78
2024-04-14T02:03:15.905Z,13.78
2024-04-14T02:03:25.895Z,13.77
2024-04-14T02:03:35.846Z,13.78
2024-04-14T02:03:46.009Z,13.78
2024-04-14T02:03:55.827Z,13.78
2024-04-14T02:04:16.021Z,13.80
2024-04-14T02:04:25.847Z,13.82
2024-04-14T02:04:35.823Z,13.82
2024-04-14T02:04:45.913Z,13.82
2024-04-14T02:04:55.790Z,13.85
2024-04-14T02:05:05.784Z,13.83
2024-04-14T02:05:15.794Z,13.85
2024-04-14T02:05:25.782Z,13.83
2024-04-14T02:05:35.788Z,13.85
2024-04-14T02:05:45.808Z,13.83
2024-04-14T02:05:55.790Z,13.83
2024-04-14T02:06:05.793Z,13.83
2024-04-14T02:06:15.809Z,13.85
2024-04-14T02:06:25.793Z,13.85
2024-04-14T02:06:35.790Z,13.85
2024-04-14T02:06:45.844Z,13.83
2024-04-14T02:06:55.898Z,13.85
2024-04-14T02:07:05.822Z,13.88
2024-04-14T02:07:15.795Z,13.88
2024-04-14T02:07:25.801Z,13.88
2024-04-14T02:07:35.797Z,13.89
2024-04-14T02:07:55.795Z,13.89
2024-04-14T02:08:05.804Z,13.90
2024-04-14T02:08:15.798Z,13.92
2024-04-14T02:08:25.819Z,13.95
2024-04-14T02:08:35.811Z,13.95
2024-04-14T02:08:45.795Z,13.95
2024-04-14T02:08:55.796Z,13.96
2024-04-14T02:09:05.808Z,13.96
2024-04-14T02:09:15.800Z,13.93
2024-04-14T02:09:25.811Z,13.93
2024-04-14T02:09:35.818Z,13.93
2024-04-14T02:09:45.876Z,13.93
2024-04-14T02:09:55.873Z,13.90
2024-04-14T02:10:05.861Z,13.90
2024-04-14T02:10:15.805Z,13.89
2024-04-14T02:10:25.814Z,13.89
2024-04-14T02:10:35.814Z,13.89
2024-04-14T02:10:45.815Z,13.89
2024-04-14T02:10:55.851Z,13.88
2024-04-14T02:11:05.860Z,13.89
2024-04-14T02:11:15.848Z,13.88
2024-04-14T02:11:25.891Z,13.88
2024-04-14T02:11:35.810Z,13.88
2024-04-14T02:11:45.833Z,13.89
2024-04-14T02:11:55.819Z,13.89
2024-04-14T02:12:05.818Z,13.89
2024-04-14T02:12:25.842Z,13.89
2024-04-14T02:12:35.808Z,13.89
2024-04-14T02:12:45.894Z,13.89
2024-04-14T02:12:56.027Z,13.90
2024-04-14T02:13:05.840Z,13.92
2024-04-14T02:13:15.813Z,13.90
2024-04-14T02:13:25.817Z,13.90
2024-04-14T02:13:35.815Z,13.92
2024-04-14T02:13:45.818Z,13.93
2024-04-14T02:14:05.818Z,13.92
2024-04-14T02:14:15.819Z,13.92
2024-04-14T02:14:25.816Z,13.92
2024-04-14T02:14:35.819Z,13.93
2024-04-14T02:14:45.823Z,13.93
2024-04-14T02:14:55.855Z,13.95
2024-04-14T02:15:05.823Z,13.95
2024-04-14T02:15:15.826Z,13.96
2024-04-14T02:15:25.884Z,13.95
2024-04-14T02:15:35.856Z,13.96
2024-04-14T02:15:45.890Z,13.95
2024-04-14T02:16:05.910Z,13.93
2024-04-14T02:16:15.843Z,13.95
2024-04-14T02:16:25.838Z,13.93
2024-04-14T02:16:35.839Z,13.93
2024-04-14T02:16:45.848Z,13.90
2024-04-14T02:16:55.837Z,13.92
2024-04-14T02:17:05.848Z,13.90
2024-04-14T02:17:15.883Z,13.89
2024-04-14T02:17:25.842Z,13.89
2024-04-14T02:17:35.886Z,13.89
2024-04-14T02:17:46.101Z,13.89
2024-04-14T02:17:55.936Z,13.89